createdAt,value
2023-02-25T00:00:07.527Z,6.9
2023-02-25T00:01:23.831Z,6.4
2023-02-25T00:02:39.145Z,6.1
2023-02-25T00:03:55.428Z,5.8
2023-02-25T00:05:11.723Z,5.9
2023-02-25T00:06:28.017Z,5.4
2023-02-25T00:07:44.307Z,6
2023-02-25T00:09:00.622Z,5.8
2023-02-25T00:10:16.906Z,5.9
2023-02-25T00:11:33.195Z,5.9
2023-02-25T00:12:49.482Z,6.4
2023-02-25T00:14:05.789Z,6.4
2023-02-25T00:15:22.089Z,5.9
2023-02-25T00:16:38.375Z,5.9
2023-02-25T00:17:54.667Z,5.4
2023-02-25T00:19:09.975Z,5.9
2023-02-25T00:20:26.272Z,6
2023-02-25T00:21:42.566Z,5.6
2023-02-25T00:22:58.859Z,5.8
2023-02-25T00:24:15.159Z,5.4
2023-02-25T00:26:47.745Z,5.3
2023-02-25T00:28:04.031Z,5.4
2023-02-25T00:29:20.343Z,5.5
2023-02-25T00:30:36.643Z,5.5
2023-02-25T00:31:52.916Z,5.1
2023-02-25T00:33:09.225Z,5.4
2023-02-25T00:34:25.510Z,5.5
2023-02-25T00:35:40.815Z,5.6
2023-02-25T00:36:57.113Z,5.3
2023-02-25T00:38:13.419Z,5.1
2023-02-25T00:39:29.715Z,5
2023-02-25T00:40:46.004Z,4.7
2023-02-25T00:42:02.301Z,5.2
2023-02-25T00:43:18.588Z,5
2023-02-25T00:44:34.891Z,4.5
2023-02-25T00:45:51.177Z,5.1
2023-02-25T00:47:07.476Z,4.5
2023-02-25T00:48:23.765Z,4.3
2023-02-25T00:49:40.058Z,4.1
2023-02-25T00:50:56.354Z,4.1
2023-02-25T00:52:11.656Z,4.2
2023-02-25T00:53:27.967Z,3.8
2023-02-25T00:54:44.255Z,3.9
2023-02-25T00:56:00.564Z,3.7
2023-02-25T00:57:16.839Z,3.3
2023-02-25T00:58:33.128Z,3.3
2023-02-25T00:59:49.428Z,3.4
2023-02-25T01:01:05.731Z,3.5
2023-02-25T01:02:22.021Z,2.9
2023-02-25T01:03:38.321Z,3
2023-02-25T01:04:54.613Z,2.8
2023-02-25T01:06:10.903Z,2.8
2023-02-25T01:07:27.190Z,3
2023-02-25T01:08:42.507Z,2.7
2023-02-25T01:09:58.798Z,3
2023-02-25T01:11:15.090Z,2.9
2023-02-25T01:12:31.386Z,2.7
2023-02-25T01:13:47.685Z,2.5
2023-02-25T01:15:03.987Z,2.6
2023-02-25T01:16:20.270Z,2.7
2023-02-25T01:17:36.559Z,2.6
2023-02-25T01:18:52.865Z,2.4
2023-02-25T01:20:09.149Z,2.6
2023-02-25T01:21:25.444Z,2.5
2023-02-25T01:22:41.741Z,2.6
2023-02-25T01:23:58.036Z,2.2
2023-02-25T01:25:13.358Z,2.2
2023-02-25T01:26:29.657Z,2.3
2023-02-25T01:27:45.939Z,2.1
2023-02-25T01:29:02.228Z,2.3
2023-02-25T01:30:18.524Z,2.2
2023-02-25T01:31:34.813Z,2
2023-02-25T01:32:51.128Z,1.9
2023-02-25T01:34:07.413Z,2
2023-02-25T01:35:23.711Z,2.3
2023-02-25T01:36:40.003Z,2.1
2023-02-25T01:37:56.303Z,2.4
2023-02-25T01:39:12.583Z,2.3
2023-02-25T01:40:28.885Z,1.8
2023-02-25T01:41:45.308Z,2
2023-02-25T01:43:01.592Z,2.2
2023-02-25T01:44:17.907Z,2.1
2023-02-25T01:45:34.181Z,2.6
2023-02-25T01:46:50.470Z,2
2023-02-25T01:48:06.774Z,1.7
2023-02-25T01:49:23.058Z,2.3
2023-02-25T01:50:39.362Z,1.9
2023-02-25T01:51:55.652Z,2.1
2023-02-25T01:53:11.956Z,1.6
2023-02-25T01:54:28.249Z,2
2023-02-25T01:55:44.543Z,1.9
2023-02-25T01:57:00.839Z,2.2
2023-02-25T01:58:16.141Z,2.1
2023-02-25T01:59:32.442Z,1.8
2023-02-25T02:00:48.738Z,1.9
2023-02-25T02:02:05.037Z,2.1
2023-02-25T02:03:21.320Z,2.2
2023-02-25T02:04:37.612Z,2
2023-02-25T02:05:53.920Z,2.1
2023-02-25T02:07:10.204Z,2.1
2023-02-25T02:08:26.499Z,1.9
2023-02-25T02:09:42.784Z,2
2023-02-25T02:10:59.095Z,1.9
2023-02-25T02:12:15.388Z,1.7
2023-02-25T02:13:31.674Z,1.9
2023-02-25T02:14:46.985Z,2.2
2023-02-25T02:16:03.287Z,2
2023-02-25T02:17:19.586Z,2
2023-02-25T02:18:35.881Z,2
2023-02-25T02:19:52.163Z,1.9
2023-02-25T02:21:08.458Z,2.1
2023-02-25T02:22:24.753Z,2
2023-02-25T02:23:41.056Z,1.9
2023-02-25T02:24:57.355Z,2.2
2023-02-25T02:26:13.644Z,2.2
2023-02-25T02:27:29.929Z,2.2
2023-02-25T02:28:46.218Z,2
2023-02-25T02:30:02.519Z,2.1
2023-02-25T02:31:17.821Z,2.1
2023-02-25T02:32:34.129Z,2.8
2023-02-25T02:33:50.417Z,2.1
2023-02-25T02:35:06.724Z,2.3
2023-02-25T02:36:23.014Z,1.9
2023-02-25T02:37:39.308Z,1.9
2023-02-25T02:38:55.589Z,2.3
2023-02-25T02:40:11.898Z,2.2
2023-02-25T02:41:28.184Z,2.1
2023-02-25T02:42:44.473Z,2.7
2023-02-25T02:44:00.786Z,2.3
2023-02-25T02:45:17.069Z,2
2023-02-25T02:46:33.366Z,2.3
2023-02-25T02:47:48.673Z,2.6
2023-02-25T02:49:04.970Z,2
2023-02-25T02:50:21.273Z,2.3
2023-02-25T02:51:37.559Z,2.3
2023-02-25T02:52:53.851Z,2.4
2023-02-25T02:54:10.148Z,1.8
2023-02-25T02:55:25.463Z,2
2023-02-25T02:56:41.753Z,1.8
2023-02-25T02:57:58.046Z,1.9
2023-02-25T02:59:14.343Z,1.8
2023-02-25T03:00:30.632Z,1.7
2023-02-25T03:01:46.925Z,2
2023-02-25T03:03:03.219Z,1.7
2023-02-25T03:04:19.519Z,1.8
2023-02-25T03:05:35.813Z,2.2
2023-02-25T03:06:52.120Z,2.2
2023-02-25T03:08:08.398Z,2
2023-02-25T03:09:24.697Z,2.1
2023-02-25T03:10:41.003Z,2
2023-02-25T03:11:56.303Z,1.9
2023-02-25T03:13:12.601Z,2
2023-02-25T03:14:28.901Z,2
2023-02-25T03:15:45.186Z,1.9
2023-02-25T03:17:01.473Z,1.9
2023-02-25T03:18:17.767Z,1.9
2023-02-25T03:19:34.070Z,1.7
2023-02-25T03:20:50.376Z,1.6
2023-02-25T03:22:06.666Z,1.8
2023-02-25T03:23:22.950Z,1.9
2023-02-25T03:24:39.249Z,1.4
2023-02-25T03:25:55.540Z,1.7
2023-02-25T03:27:11.835Z,1.5
2023-02-25T03:28:27.146Z,1.4
2023-02-25T03:29:43.442Z,1.6
2023-02-25T03:30:59.731Z,1.6
2023-02-25T03:32:16.031Z,1.7
2023-02-25T03:33:32.332Z,1.6
2023-02-25T03:34:48.622Z,1.6
2023-02-25T03:36:04.920Z,1.5
2023-02-25T03:37:21.204Z,1.6
2023-02-25T03:38:37.498Z,1.8
2023-02-25T03:39:53.791Z,1.7
2023-02-25T03:41:10.100Z,1.8
2023-02-25T03:42:26.396Z,1.7
2023-02-25T03:43:42.675Z,1.8
2023-02-25T03:44:58.003Z,1.8
2023-02-25T03:46:14.291Z,1.9
2023-02-25T03:47:30.583Z,1.6
2023-02-25T03:48:46.881Z,1.9
2023-02-25T03:50:03.163Z,1.8
2023-02-25T03:51:19.473Z,1.9
2023-02-25T03:52:35.760Z,1.7
2023-02-25T03:53:52.056Z,1.9
2023-02-25T03:55:08.342Z,1.7
2023-02-25T03:56:24.643Z,1.7
2023-02-25T03:57:40.933Z,1.6
2023-02-25T03:58:57.229Z,1.8
2023-02-25T04:00:13.524Z,1.8
2023-02-25T04:01:28.835Z,1.7
2023-02-25T04:02:45.139Z,1.7
2023-02-25T04:04:01.435Z,1.7
2023-02-25T04:05:17.729Z,1.6
2023-02-25T04:06:34.021Z,1.8
2023-02-25T04:07:50.308Z,1.6
2023-02-25T04:09:06.603Z,1.5
2023-02-25T04:10:22.901Z,1.5
2023-02-25T04:11:39.204Z,1.6
2023-02-25T04:12:55.481Z,1.7
2023-02-25T04:14:11.773Z,1.5
2023-02-25T04:15:28.078Z,1.6
2023-02-25T04:16:44.361Z,1.7
2023-02-25T04:17:59.679Z,1.7
2023-02-25T04:19:15.978Z,1.7
2023-02-25T04:20:32.262Z,1.7
2023-02-25T04:21:48.562Z,1.6
2023-02-25T04:23:04.863Z,1.8
2023-02-25T04:24:21.149Z,1.7
2023-02-25T04:25:37.452Z,1.7
2023-02-25T04:26:53.749Z,1.6
2023-02-25T04:28:10.037Z,1.8
2023-02-25T04:29:26.331Z,1.7
2023-02-25T04:30:42.623Z,1.7
2023-02-25T04:31:58.919Z,1.8
2023-02-25T04:33:15.216Z,1.6
2023-02-25T04:34:30.537Z,1.9
2023-02-25T04:35:46.835Z,1.9
2023-02-25T04:37:03.125Z,1.9
2023-02-25T04:38:19.400Z,1.9
2023-02-25T04:39:35.704Z,1.7
2023-02-25T04:40:52.000Z,2
2023-02-25T04:42:08.297Z,2.1
2023-02-25T04:43:24.586Z,1.8
2023-02-25T04:44:40.880Z,2
2023-02-25T04:45:57.180Z,2.1
2023-02-25T04:47:13.463Z,2.1
2023-02-25T04:48:29.765Z,2.2
2023-02-25T04:49:46.053Z,2.1
2023-02-25T04:51:01.367Z,2.1
2023-02-25T04:53:33.962Z,2.2
2023-02-25T04:54:50.264Z,2.2
2023-02-25T04:56:06.563Z,2.3
2023-02-25T04:57:22.842Z,2.1
2023-02-25T04:58:39.135Z,2
2023-02-25T04:59:55.425Z,2.1
2023-02-25T05:01:11.729Z,2.2
2023-02-25T05:02:28.015Z,2
2023-02-25T05:03:44.317Z,2.1
2023-02-25T05:05:00.604Z,2
2023-02-25T05:06:16.913Z,2.1
2023-02-25T05:07:32.211Z,1.9
2023-02-25T05:08:48.515Z,2.3
2023-02-25T05:10:04.797Z,1.9
2023-02-25T05:11:21.095Z,2
2023-02-25T05:12:37.389Z,1.9
2023-02-25T05:13:53.687Z,2
2023-02-25T05:15:09.974Z,1.9
2023-02-25T05:16:26.278Z,2
2023-02-25T05:17:42.575Z,1.8
2023-02-25T05:18:58.857Z,1.9
2023-02-25T05:20:15.163Z,1.6
2023-02-25T05:21:31.459Z,1.8
2023-02-25T05:22:47.756Z,1.7
2023-02-25T05:24:03.066Z,2
2023-02-25T05:25:19.367Z,1.8
2023-02-25T05:26:35.657Z,1.8
2023-02-25T05:27:51.947Z,1.7
2023-02-25T05:29:08.235Z,1.7
2023-02-25T05:30:24.535Z,2.2
2023-02-25T05:31:40.828Z,1.7
2023-02-25T05:32:57.000Z,1.7
2023-02-25T05:34:13.425Z,1.7
2023-02-25T05:35:29.716Z,1.8
2023-02-25T05:36:46.014Z,1.7
2023-02-25T05:38:02.298Z,1.8
2023-02-25T05:39:18.589Z,1.8
2023-02-25T05:40:33.910Z,1.7
2023-02-25T05:41:50.153Z,1.7
2023-02-25T05:43:06.411Z,1.7
2023-02-25T05:44:22.650Z,1.7
2023-02-25T05:45:38.934Z,1.8
2023-02-25T05:46:55.233Z,1.7
2023-02-25T05:48:11.487Z,1.9
2023-02-25T05:49:27.716Z,1.8
2023-02-25T05:50:43.964Z,2
2023-02-25T05:52:00.213Z,1.7
2023-02-25T05:53:16.458Z,1.8
2023-02-25T05:54:32.690Z,1.7
2023-02-25T05:55:48.925Z,2.1
2023-02-25T05:57:04.183Z,1.7
2023-02-25T05:58:20.424Z,1.8
2023-02-25T05:59:36.657Z,1.8
2023-02-25T06:00:52.905Z,2.1
2023-02-25T06:02:09.144Z,1.8
2023-02-25T06:03:25.380Z,1.8
2023-02-25T06:04:41.620Z,1.9
2023-02-25T06:05:57.862Z,1.7
2023-02-25T06:07:14.108Z,1.7
2023-02-25T06:08:30.351Z,1.7
2023-02-25T06:09:46.592Z,2
2023-02-25T06:11:02.833Z,1.8
2023-02-25T06:12:19.063Z,2
2023-02-25T06:13:34.320Z,1.8
2023-02-25T06:14:50.575Z,1.8
2023-02-25T06:16:06.801Z,1.9
2023-02-25T06:17:23.059Z,2
2023-02-25T06:18:39.289Z,1.8
2023-02-25T06:19:55.521Z,1.6
2023-02-25T06:21:11.782Z,1.8
2023-02-25T06:22:28.002Z,1.6
2023-02-25T06:23:44.243Z,2.2
2023-02-25T06:25:00.507Z,1.7
2023-02-25T06:26:16.753Z,1.6
2023-02-25T06:27:32.976Z,2.1
2023-02-25T06:28:49.218Z,1.7
2023-02-25T06:30:04.467Z,1.7
2023-02-25T06:31:20.714Z,1.8
2023-02-25T06:32:36.963Z,1.6
2023-02-25T06:33:53.196Z,1.7
2023-02-25T06:35:09.435Z,1.5
2023-02-25T06:36:25.678Z,1.9
2023-02-25T06:37:41.918Z,1.5
2023-02-25T06:38:58.150Z,1.8
2023-02-25T06:40:14.387Z,1.8
2023-02-25T06:41:30.628Z,1.7
2023-02-25T06:42:46.881Z,1.5
2023-02-25T06:44:03.112Z,1.9
2023-02-25T06:45:19.367Z,1.8
2023-02-25T06:46:34.615Z,1.7
2023-02-25T06:47:50.859Z,1.8
2023-02-25T06:49:07.086Z,1.9
2023-02-25T06:50:23.335Z,1.7
2023-02-25T06:51:39.578Z,1.8
2023-02-25T06:52:55.821Z,1.6
2023-02-25T06:54:12.065Z,1.7
2023-02-25T06:55:28.292Z,1.8
2023-02-25T06:56:44.555Z,1.8
2023-02-25T06:58:00.785Z,1.9
2023-02-25T06:59:17.019Z,1.8
2023-02-25T07:00:33.275Z,1.9
2023-02-25T07:01:49.503Z,1.7
2023-02-25T07:03:04.766Z,1.7
2023-02-25T07:04:21.006Z,2
2023-02-25T07:05:37.236Z,2.3
2023-02-25T07:06:53.494Z,1.9
2023-02-25T07:08:09.714Z,1.9
2023-02-25T07:09:25.960Z,2
2023-02-25T07:10:41.215Z,2
2023-02-25T07:11:57.473Z,2
2023-02-25T07:13:13.695Z,2.1
2023-02-25T07:14:29.946Z,2.1
2023-02-25T07:15:46.190Z,2.1
2023-02-25T07:17:02.416Z,1.9
2023-02-25T07:18:18.655Z,2.2
2023-02-25T07:19:34.895Z,1.9
2023-02-25T07:20:51.141Z,2.5
2023-02-25T07:22:07.384Z,2.4
2023-02-25T07:23:23.617Z,2
2023-02-25T07:24:39.868Z,2.2
2023-02-25T07:25:56.108Z,2.1
2023-02-25T07:27:11.362Z,2.4
2023-02-25T07:28:27.619Z,2.2
2023-02-25T07:29:43.849Z,2.2
2023-02-25T07:31:00.087Z,2.3
2023-02-25T07:32:16.339Z,2.2
2023-02-25T07:33:32.578Z,2.1
2023-02-25T07:34:48.801Z,2.3
2023-02-25T07:36:05.047Z,2.2
2023-02-25T07:37:21.300Z,2.2
2023-02-25T07:38:37.526Z,2.2
2023-02-25T07:39:53.782Z,2.6
2023-02-25T07:41:10.019Z,2.4
2023-02-25T07:42:26.249Z,2.3
2023-02-25T07:43:41.500Z,2.2
2023-02-25T07:44:57.755Z,2.5
2023-02-25T07:46:13.993Z,2.4
2023-02-25T07:47:30.229Z,2.4
2023-02-25T07:48:46.476Z,2.4
2023-02-25T07:50:02.723Z,2.5
2023-02-25T07:51:18.967Z,2.2
2023-02-25T07:52:35.197Z,2.2
2023-02-25T07:53:51.434Z,2.5
2023-02-25T07:55:07.664Z,2.2
2023-02-25T07:56:23.906Z,2.3
2023-02-25T07:57:40.157Z,2.4
2023-02-25T07:58:56.394Z,2.2
2023-02-25T08:00:11.644Z,2.2
2023-02-25T08:01:27.900Z,2.9
2023-02-25T08:02:44.141Z,2.3
2023-02-25T08:04:00.375Z,2.5
2023-02-25T08:05:16.604Z,2.3
2023-02-25T08:06:32.863Z,2.3
2023-02-25T08:07:49.105Z,2.4
2023-02-25T08:09:05.343Z,2.3
2023-02-25T08:10:21.571Z,2.3
2023-02-25T08:11:37.819Z,2.3
2023-02-25T08:12:54.064Z,2.3
2023-02-25T08:14:10.298Z,2.2
2023-02-25T08:15:26.545Z,2.1
2023-02-25T08:16:41.802Z,2.1
2023-02-25T08:17:58.040Z,2.5
2023-02-25T08:19:14.271Z,2.2
2023-02-25T08:20:30.516Z,2.3
2023-02-25T08:21:46.761Z,2.4
2023-02-25T08:23:02.988Z,2.2
2023-02-25T08:24:19.230Z,2.1
2023-02-25T08:25:35.477Z,2.4
2023-02-25T08:26:51.726Z,2.3
2023-02-25T08:28:07.958Z,2.2
2023-02-25T08:29:24.201Z,2.4
2023-02-25T08:30:40.430Z,2.5
2023-02-25T08:31:56.672Z,2.2
2023-02-25T08:33:11.931Z,2.2
2023-02-25T08:34:28.195Z,2.5
2023-02-25T08:35:44.429Z,2.3
2023-02-25T08:37:00.653Z,2.4
2023-02-25T08:38:16.900Z,2
2023-02-25T08:39:33.149Z,1.7
2023-02-25T08:40:49.391Z,2
2023-02-25T08:42:05.626Z,1.9
2023-02-25T08:43:21.858Z,2
2023-02-25T08:44:38.110Z,2
2023-02-25T08:45:54.338Z,2.1
2023-02-25T08:47:10.578Z,2.3
2023-02-25T08:48:26.827Z,2.1
2023-02-25T08:49:42.082Z,2
2023-02-25T08:50:58.315Z,1.9
2023-02-25T08:52:14.572Z,2.1
2023-02-25T08:53:30.807Z,1.9
2023-02-25T08:54:47.000Z,1.8
2023-02-25T08:56:03.284Z,1.8
2023-02-25T08:57:19.526Z,2.1
2023-02-25T08:58:35.755Z,2.3
2023-02-25T08:59:52.011Z,2.9
2023-02-25T09:01:08.236Z,2
2023-02-25T09:02:24.478Z,2.2
2023-02-25T09:03:40.718Z,2.2
2023-02-25T09:04:56.980Z,2.1
2023-02-25T09:06:12.229Z,2.6
2023-02-25T09:07:28.462Z,2.1
2023-02-25T09:08:44.710Z,2.7
2023-02-25T09:10:00.943Z,2.1
2023-02-25T09:11:17.199Z,2.2
2023-02-25T09:12:33.418Z,2
2023-02-25T09:13:49.672Z,2.1
2023-02-25T09:15:05.918Z,1.9
2023-02-25T09:16:22.159Z,2.2
2023-02-25T09:17:38.391Z,2.2
2023-02-25T09:18:54.637Z,2.4
2023-02-25T09:20:10.879Z,2.6
2023-02-25T09:21:27.105Z,2.4
2023-02-25T09:22:42.387Z,2.7
2023-02-25T09:23:58.616Z,2.6
2023-02-25T09:25:14.843Z,2.8
2023-02-25T09:26:31.095Z,2.8
2023-02-25T09:27:47.345Z,3
2023-02-25T09:29:03.568Z,3.2
2023-02-25T09:30:19.803Z,3
2023-02-25T09:31:36.050Z,2.9
2023-02-25T09:32:52.297Z,2.7
2023-02-25T09:34:08.538Z,2.8
2023-02-25T09:35:24.772Z,2.6
2023-02-25T09:36:41.018Z,3
2023-02-25T09:37:57.260Z,2.6
2023-02-25T09:39:12.522Z,2.8
2023-02-25T09:40:28.767Z,2.4
2023-02-25T09:41:45.004Z,3.1
2023-02-25T09:43:01.238Z,2.6
2023-02-25T09:44:17.468Z,3.2
2023-02-25T09:45:33.722Z,2.8
2023-02-25T09:46:49.952Z,2.8
2023-02-25T09:48:06.212Z,2.7
2023-02-25T09:49:22.443Z,2.8
2023-02-25T09:50:38.679Z,2.8
2023-02-25T09:51:54.908Z,2.7
2023-02-25T09:53:11.150Z,3
2023-02-25T09:54:27.421Z,2.8
2023-02-25T09:55:42.664Z,2.9
2023-02-25T09:56:58.903Z,2.7
2023-02-25T09:58:15.132Z,2.8
2023-02-25T09:59:31.383Z,2.9
2023-02-25T10:00:47.626Z,2.8
2023-02-25T10:02:03.869Z,2.8
2023-02-25T10:03:20.104Z,2.9
2023-02-25T10:04:36.342Z,2.9
2023-02-25T10:05:52.589Z,2.9
2023-02-25T10:07:08.811Z,2.7
2023-02-25T10:08:25.065Z,2.8
2023-02-25T10:09:41.305Z,2.9
2023-02-25T10:10:57.566Z,2.9
2023-02-25T10:12:12.800Z,2.8
2023-02-25T10:13:29.047Z,2.5
2023-02-25T10:14:45.303Z,2.9
2023-02-25T10:16:01.514Z,2.9
2023-02-25T10:17:17.758Z,2.8
2023-02-25T10:18:34.011Z,2.6
2023-02-25T10:19:50.247Z,2.8
2023-02-25T10:21:06.491Z,2.8
2023-02-25T10:22:22.742Z,3.1
2023-02-25T10:23:38.970Z,2.9
2023-02-25T10:24:55.210Z,2.7
2023-02-25T10:26:11.464Z,3.1
2023-02-25T10:27:27.677Z,2.9
2023-02-25T10:28:42.968Z,3.2
2023-02-25T10:29:59.177Z,3.1
2023-02-25T10:31:15.432Z,3.1
2023-02-25T10:32:31.666Z,2.9
2023-02-25T10:33:47.915Z,3.1
2023-02-25T10:35:04.164Z,3.1
2023-02-25T10:36:20.382Z,2.7
2023-02-25T10:37:36.627Z,3.1
2023-02-25T10:38:52.876Z,2.8
2023-02-25T10:40:09.108Z,2.7
2023-02-25T10:41:25.340Z,2.8
2023-02-25T10:42:41.585Z,2.9
2023-02-25T10:43:57.827Z,2.9
2023-02-25T10:45:13.076Z,2.8
2023-02-25T10:46:29.317Z,2.6
2023-02-25T10:47:45.576Z,2.8
2023-02-25T10:49:01.819Z,2.8
2023-02-25T10:50:18.045Z,2.8
2023-02-25T10:51:34.292Z,2.8
2023-02-25T10:52:50.525Z,2.7
2023-02-25T10:54:06.786Z,3.2
2023-02-25T10:55:23.018Z,2.9
2023-02-25T10:56:39.245Z,2.8
2023-02-25T10:57:55.486Z,2.4
2023-02-25T10:59:11.731Z,2.4
2023-02-25T11:00:27.971Z,2.6
2023-02-25T11:01:43.220Z,2.8
2023-02-25T11:02:59.485Z,2.7
2023-02-25T11:04:15.717Z,2.7
2023-02-25T11:05:31.956Z,2.3
2023-02-25T11:06:48.183Z,2.4
2023-02-25T11:08:04.420Z,2.7
2023-02-25T11:09:20.669Z,2.6
2023-02-25T11:10:36.918Z,2.7
2023-02-25T11:11:53.155Z,2.6
2023-02-25T11:13:09.403Z,2.8
2023-02-25T11:14:25.626Z,2.6
2023-02-25T11:15:41.864Z,2.9
2023-02-25T11:16:58.124Z,2.6
2023-02-25T11:18:13.385Z,2.7
2023-02-25T11:19:29.607Z,2.8
2023-02-25T11:20:45.873Z,2.7
2023-02-25T11:22:02.082Z,3.1
2023-02-25T11:23:18.325Z,3.2
2023-02-25T11:24:34.576Z,2.9
2023-02-25T11:25:49.838Z,3.2
2023-02-25T11:27:06.076Z,2.8
2023-02-25T11:28:22.330Z,3.1
2023-02-25T11:29:38.565Z,2.8
2023-02-25T11:30:54.819Z,2.8
2023-02-25T11:32:11.030Z,2.5
2023-02-25T11:33:27.274Z,3
2023-02-25T11:34:43.539Z,2.6
2023-02-25T11:35:59.767Z,3.2
2023-02-25T11:37:16.013Z,4.6
2023-02-25T11:38:32.247Z,3
2023-02-25T11:39:48.482Z,3.9
2023-02-25T11:41:04.726Z,4.5
2023-02-25T11:42:19.991Z,3.1
2023-02-25T11:43:36.229Z,2.5
2023-02-25T11:44:52.474Z,3
2023-02-25T11:46:08.692Z,2
2023-02-25T11:47:24.954Z,2
2023-02-25T11:48:41.189Z,1.8
2023-02-25T11:49:57.428Z,2
2023-02-25T11:51:13.656Z,2
2023-02-25T11:52:29.918Z,1.9
2023-02-25T11:53:46.154Z,2.9
2023-02-25T11:55:02.377Z,2.2
2023-02-25T11:56:18.641Z,2.4
2023-02-25T11:57:34.857Z,2.1
2023-02-25T11:58:50.129Z,2.3
2023-02-25T12:00:06.367Z,2.1
2023-02-25T12:01:22.613Z,2.4
2023-02-25T12:02:38.834Z,2.8
2023-02-25T12:03:55.085Z,2.7
2023-02-25T12:05:11.334Z,2.3
2023-02-25T12:06:27.577Z,2
2023-02-25T12:07:43.793Z,2.3
2023-02-25T12:09:00.033Z,2.2
2023-02-25T12:10:16.273Z,2
2023-02-25T12:11:32.545Z,2.1
2023-02-25T12:12:48.772Z,2
2023-02-25T12:14:04.999Z,2.1
2023-02-25T12:15:20.272Z,2
2023-02-25T12:16:36.524Z,2
2023-02-25T12:17:52.760Z,1.9
2023-02-25T12:19:08.985Z,1.8
2023-02-25T12:20:25.213Z,2.1
2023-02-25T12:21:41.475Z,1.6
2023-02-25T12:22:57.695Z,1.7
2023-02-25T12:24:13.936Z,1.6
2023-02-25T12:25:30.209Z,1.4
2023-02-25T12:26:46.435Z,1.7
2023-02-25T12:28:02.674Z,1.8
2023-02-25T12:29:18.922Z,2
2023-02-25T12:30:35.164Z,1.7
2023-02-25T12:31:50.412Z,1.9
2023-02-25T12:33:06.635Z,1.6
2023-02-25T12:34:22.891Z,1.5
2023-02-25T12:35:39.126Z,1.3
2023-02-25T12:36:55.363Z,1.7
2023-02-25T12:38:11.603Z,1.4
2023-02-25T12:39:27.839Z,1.4
2023-02-25T12:40:44.076Z,1.3
2023-02-25T12:42:00.322Z,1.4
2023-02-25T12:43:16.576Z,1.4
2023-02-25T12:44:32.816Z,1.4
2023-02-25T12:45:49.050Z,1.3
2023-02-25T12:47:05.312Z,1.3
2023-02-25T12:48:20.536Z,1.3
2023-02-25T12:49:36.797Z,1.2
2023-02-25T12:50:53.031Z,1.3
2023-02-25T12:52:09.258Z,1.4
2023-02-25T12:53:25.524Z,1.2
2023-02-25T12:54:41.760Z,1.4
2023-02-25T12:55:57.988Z,1.3
2023-02-25T12:57:14.226Z,1.4
2023-02-25T12:58:30.463Z,1.4
2023-02-25T12:59:46.720Z,1.3
2023-02-25T13:01:02.962Z,1.3
2023-02-25T13:02:19.218Z,1.4
2023-02-25T13:03:35.443Z,1.4
2023-02-25T13:04:50.716Z,1.3
2023-02-25T13:06:06.939Z,1.4
2023-02-25T13:07:23.169Z,1.4
2023-02-25T13:08:39.402Z,1.5
2023-02-25T13:09:55.642Z,1.2
2023-02-25T13:11:11.898Z,1.4
2023-02-25T13:12:28.156Z,1.3
2023-02-25T13:13:44.363Z,1.3
2023-02-25T13:15:00.628Z,1.5
2023-02-25T13:16:16.850Z,1.2
2023-02-25T13:17:33.081Z,1.2
2023-02-25T13:18:49.324Z,1.2
2023-02-25T13:20:05.000Z,1.3
2023-02-25T13:21:20.833Z,1.1
2023-02-25T13:22:37.074Z,1.2
2023-02-25T13:23:53.318Z,1.2
2023-02-25T13:25:09.574Z,1.3
2023-02-25T13:26:25.804Z,1.3
2023-02-25T13:27:42.041Z,1.3
2023-02-25T13:28:58.267Z,1.4
2023-02-25T13:30:14.522Z,1.3
2023-02-25T13:31:30.774Z,1.6
2023-02-25T13:32:47.000Z,1.4
2023-02-25T13:34:03.233Z,1.8
2023-02-25T13:35:19.471Z,1.4
2023-02-25T13:36:35.709Z,1.6
2023-02-25T13:37:50.963Z,1.4
2023-02-25T13:39:07.212Z,1.4
2023-02-25T13:40:23.448Z,1.5
2023-02-25T13:41:39.696Z,1.6
2023-02-25T13:42:55.926Z,1.5
2023-02-25T13:44:12.194Z,1.5
2023-02-25T13:45:28.408Z,1.5
2023-02-25T13:46:44.665Z,1.6
2023-02-25T13:48:00.910Z,1.4
2023-02-25T13:49:17.139Z,1.5
2023-02-25T13:50:33.386Z,1.4
2023-02-25T13:51:49.609Z,1.4
2023-02-25T13:53:05.866Z,1.4
2023-02-25T13:54:21.128Z,1.4
2023-02-25T13:55:37.376Z,1.2
2023-02-25T13:56:53.583Z,1.3
2023-02-25T13:58:09.836Z,1.2
2023-02-25T13:59:26.075Z,1.2
2023-02-25T14:00:42.304Z,1.2
2023-02-25T14:01:58.572Z,1.2
2023-02-25T14:03:14.805Z,2.4
2023-02-25T14:04:31.047Z,2.9
2023-02-25T14:05:47.272Z,3.6
2023-02-25T14:07:03.525Z,1.8
2023-02-25T14:08:19.748Z,3.6
2023-02-25T14:09:35.987Z,3.5
2023-02-25T14:10:51.268Z,2.6
2023-02-25T14:12:07.518Z,4.9
2023-02-25T14:13:23.736Z,3.4
2023-02-25T14:14:39.998Z,3.4
2023-02-25T14:15:56.217Z,3.7
2023-02-25T14:17:12.451Z,2.5
2023-02-25T14:18:28.715Z,1.6
2023-02-25T14:19:44.944Z,1.3
2023-02-25T14:21:01.199Z,1.6
2023-02-25T14:22:17.437Z,1.4
2023-02-25T14:23:33.650Z,1.2
2023-02-25T14:24:49.898Z,1.4
2023-02-25T14:26:06.152Z,1.4
2023-02-25T14:27:21.410Z,1.3
2023-02-25T14:28:37.624Z,1.2
2023-02-25T14:29:53.874Z,1.3
2023-02-25T14:31:10.106Z,1.4
2023-02-25T14:32:26.373Z,1.4
2023-02-25T14:33:42.602Z,1.2
2023-02-25T14:34:58.851Z,1.3
2023-02-25T14:36:15.071Z,1.1
2023-02-25T14:37:31.337Z,1.2
2023-02-25T14:38:47.551Z,1.2
2023-02-25T14:40:03.823Z,1.4
2023-02-25T14:41:20.028Z,1.3
2023-02-25T14:42:36.293Z,1.4
2023-02-25T14:43:51.530Z,1.3
2023-02-25T14:45:07.780Z,1.3
2023-02-25T14:46:24.016Z,1.3
2023-02-25T14:47:40.282Z,1.1
2023-02-25T14:48:56.520Z,1.3
2023-02-25T14:50:12.749Z,1.3
2023-02-25T14:51:28.971Z,1.4
2023-02-25T14:52:45.212Z,1.4
2023-02-25T14:54:01.478Z,1.2
2023-02-25T14:55:17.714Z,0.9
2023-02-25T14:56:33.948Z,0.9
2023-02-25T14:57:50.174Z,0.9
2023-02-25T14:59:06.420Z,1
2023-02-25T15:00:21.674Z,0.8
2023-02-25T15:01:37.921Z,0.9
2023-02-25T15:02:54.181Z,0.9
2023-02-25T15:04:10.394Z,0.8
2023-02-25T15:05:26.634Z,0.8
2023-02-25T15:06:42.878Z,0.9
2023-02-25T15:07:59.113Z,0.9
2023-02-25T15:09:15.357Z,0.9
2023-02-25T15:10:31.597Z,1
2023-02-25T15:11:47.833Z,1
2023-02-25T15:13:04.093Z,1.2
2023-02-25T15:14:20.338Z,2.1
2023-02-25T15:15:36.566Z,1.1
2023-02-25T15:16:51.826Z,1
2023-02-25T15:18:08.071Z,1.2
2023-02-25T15:19:24.320Z,1.1
2023-02-25T15:20:40.552Z,1.1
2023-02-25T15:21:56.776Z,1.4
2023-02-25T15:23:13.037Z,2.3
2023-02-25T15:24:29.276Z,1.6
2023-02-25T15:25:45.518Z,2.1
2023-02-25T15:27:01.760Z,2
2023-02-25T15:28:18.011Z,2.3
2023-02-25T15:29:34.231Z,1.3
2023-02-25T15:30:50.486Z,1.7
2023-02-25T15:32:06.715Z,1
2023-02-25T15:33:21.970Z,1.2
2023-02-25T15:34:38.199Z,1.2
2023-02-25T15:35:54.445Z,1.2
2023-02-25T15:37:10.690Z,1.1
2023-02-25T15:38:26.929Z,1.1
2023-02-25T15:39:43.157Z,1
2023-02-25T15:40:58.434Z,1.2
2023-02-25T15:42:14.683Z,1
2023-02-25T15:43:30.900Z,1.1
2023-02-25T15:44:47.157Z,1
2023-02-25T15:46:03.414Z,1.2
2023-02-25T15:47:19.655Z,1.2
2023-02-25T15:48:35.881Z,1
2023-02-25T15:49:52.127Z,1.3
2023-02-25T15:51:08.377Z,1.3
2023-02-25T15:52:24.599Z,1.4
2023-02-25T15:53:40.861Z,1.4
2023-02-25T15:54:57.084Z,1.5
2023-02-25T15:56:13.313Z,1.4
2023-02-25T15:57:28.564Z,1.7
2023-02-25T15:58:44.822Z,1.9
2023-02-25T16:00:01.049Z,1.5
2023-02-25T16:01:17.321Z,1.5
2023-02-25T16:02:33.537Z,1.3
2023-02-25T16:03:49.762Z,1.3
2023-02-25T16:05:06.026Z,1.5
2023-02-25T16:06:22.278Z,1.3
2023-02-25T16:07:38.486Z,1.4
2023-02-25T16:08:54.737Z,1.4
2023-02-25T16:10:10.966Z,1.5
2023-02-25T16:11:27.236Z,1.5
2023-02-25T16:12:43.471Z,2.1
2023-02-25T16:13:58.707Z,3.5
2023-02-25T16:15:14.951Z,3.1
2023-02-25T16:16:31.186Z,3.1
2023-02-25T16:17:47.438Z,2.5
2023-02-25T16:19:03.695Z,2.3
2023-02-25T16:20:19.910Z,2.3
2023-02-25T16:21:36.153Z,1.5
2023-02-25T16:22:52.420Z,1.5
2023-02-25T16:24:08.632Z,1.3
2023-02-25T16:25:24.881Z,1.4
2023-02-25T16:26:41.117Z,1.5
2023-02-25T16:27:57.375Z,1.5
2023-02-25T16:29:13.621Z,1.5
2023-02-25T16:30:28.863Z,1.9
2023-02-25T16:31:45.107Z,1.9
2023-02-25T16:33:01.345Z,1.5
2023-02-25T16:34:17.592Z,1.5
2023-02-25T16:35:33.835Z,1.5
2023-02-25T16:36:50.074Z,1.5
2023-02-25T16:38:06.303Z,1.5
2023-02-25T16:39:22.550Z,1.6
2023-02-25T16:40:38.806Z,2.2
2023-02-25T16:41:55.017Z,1.7
2023-02-25T16:43:11.275Z,1.6
2023-02-25T16:44:27.499Z,1.5
2023-02-25T16:45:43.759Z,1.4
2023-02-25T16:46:58.990Z,1.5
2023-02-25T16:48:15.236Z,1.4
2023-02-25T16:49:31.473Z,1.8
2023-02-25T16:50:47.716Z,1.6
2023-02-25T16:52:03.952Z,1.6
2023-02-25T16:53:20.202Z,1.7
2023-02-25T16:54:36.455Z,1.5
2023-02-25T16:55:52.677Z,2.2
2023-02-25T16:57:08.947Z,2
2023-02-25T16:58:25.195Z,1.8
2023-02-25T16:59:41.435Z,1.5
2023-02-25T17:00:57.654Z,1.4
2023-02-25T17:02:13.918Z,1.5
2023-02-25T17:03:29.242Z,1.5
2023-02-25T17:04:45.454Z,1.3
2023-02-25T17:06:01.712Z,1.2
2023-02-25T17:07:17.929Z,1.2
2023-02-25T17:08:34.245Z,1.2
2023-02-25T17:09:50.482Z,1.3
2023-02-25T17:11:06.722Z,1.1
2023-02-25T17:12:23.030Z,1.4
2023-02-25T17:13:39.315Z,1.1
2023-02-25T17:14:55.624Z,1.1
2023-02-25T17:16:11.907Z,1.1
2023-02-25T17:17:28.222Z,1.1
2023-02-25T17:18:44.485Z,1.2
2023-02-25T17:19:59.809Z,1.2
2023-02-25T17:21:16.113Z,1.3
2023-02-25T17:22:32.393Z,1.2
2023-02-25T17:23:48.695Z,1.3
2023-02-25T17:25:04.977Z,1.2
2023-02-25T17:26:21.262Z,1.2
2023-02-25T17:27:37.564Z,1.2
2023-02-25T17:28:53.871Z,1.1
2023-02-25T17:30:10.157Z,1
2023-02-25T17:31:26.442Z,1.2
2023-02-25T17:32:42.736Z,1.2
2023-02-25T17:33:59.031Z,1
2023-02-25T17:35:15.329Z,1.2
2023-02-25T17:36:30.667Z,1
2023-02-25T17:37:46.955Z,1